sensor_id;sensor_type;location;lat;lon;timestamp;temperature;humidity
17080;DHT22;8655;57.106;-2.088;2023-03-01T00:01:29;18.10;42.60
17080;DHT22;8655;57.106;-2.088;2023-03-01T00:03:56;18.10;42.60
17080;DHT22;8655;57.106;-2.088;2023-03-01T00:06:22;18.10;42.60
17080;DHT22;8655;57.106;-2.088;2023-03-01T00:08:49;18.00;42.50
17080;DHT22;8655;57.106;-2.088;2023-03-01T00:11:26;18.00;42.50
17080;DHT22;8655;57.106;-2.088;2023-03-01T00:13:54;18.00;42.50
17080;DHT22;8655;57.106;-2.088;2023-03-01T00:16:26;18.00;42.50
17080;DHT22;8655;57.106;-2.088;2023-03-01T00:18:56;18.00;42.50
17080;DHT22;8655;57.106;-2.088;2023-03-01T00:21:23;18.00;42.50
17080;DHT22;8655;57.106;-2.088;2023-03-01T00:23:50;18.00;43.10
17080;DHT22;8655;57.106;-2.088;2023-03-01T00:26:16;18.00;42.50
17080;DHT22;8655;57.106;-2.088;2023-03-01T00:28:43;17.90;42.40
17080;DHT22;8655;57.106;-2.088;2023-03-01T00:31:11;17.90;42.40
17080;DHT22;8655;57.106;-2.088;2023-03-01T00:33:38;17.90;42.40
17080;DHT22;8655;57.106;-2.088;2023-03-01T00:36:04;17.90;42.50
17080;DHT22;8655;57.106;-2.088;2023-03-01T00:38:30;17.90;42.40
17080;DHT22;8655;57.106;-2.088;2023-03-01T00:40:56;17.90;42.40
17080;DHT22;8655;57.106;-2.088;2023-03-01T00:43:27;17.90;42.40
17080;DHT22;8655;57.106;-2.088;2023-03-01T00:45:53;17.90;42.40
17080;DHT22;8655;57.106;-2.088;2023-03-01T00:48:18;17.90;42.40
17080;DHT22;8655;57.106;-2.088;2023-03-01T00:50:44;17.90;42.50
17080;DHT22;8655;57.106;-2.088;2023-03-01T00:53:10;17.90;42.40
17080;DHT22;8655;57.106;-2.088;2023-03-01T00:55:36;17.80;42.30
17080;DHT22;8655;57.106;-2.088;2023-03-01T00:58:01;17.80;42.30
17080;DHT22;8655;57.106;-2.088;2023-03-01T01:00:27;17.80;42.40
17080;DHT22;8655;57.106;-2.088;2023-03-01T01:02:54;17.80;42.30
17080;DHT22;8655;57.106;-2.088;2023-03-01T01:05:19;17.80;42.30
17080;DHT22;8655;57.106;-2.088;2023-03-01T01:07:46;17.80;42.30
17080;DHT22;8655;57.106;-2.088;2023-03-01T01:10:12;17.80;42.40
17080;DHT22;8655;57.106;-2.088;2023-03-01T01:12:43;17.80;42.40
17080;DHT22;8655;57.106;-2.088;2023-03-01T01:15:09;17.80;42.30
17080;DHT22;8655;57.106;-2.088;2023-03-01T01:17:37;17.80;42.30
17080;DHT22;8655;57.106;-2.088;2023-03-01T01:20:03;17.80;42.40
17080;DHT22;8655;57.106;-2.088;2023-03-01T01:22:29;17.70;42.30
17080;DHT22;8655;57.106;-2.088;2023-03-01T01:24:55;17.70;42.30
17080;DHT22;8655;57.106;-2.088;2023-03-01T01:27:20;17.70;42.30
17080;DHT22;8655;57.106;-2.088;2023-03-01T01:29:46;17.70;42.30
17080;DHT22;8655;57.106;-2.088;2023-03-01T01:32:11;17.70;42.30
17080;DHT22;8655;57.106;-2.088;2023-03-01T01:34:37;17.70;42.30
17080;DHT22;8655;57.106;-2.088;2023-03-01T01:37:03;17.70;42.30
17080;DHT22;8655;57.106;-2.088;2023-03-01T01:39:34;17.70;42.30
17080;DHT22;8655;57.106;-2.088;2023-03-01T01:42:00;17.70;42.30
17080;DHT22;8655;57.106;-2.088;2023-03-01T01:44:28;17.60;42.30
17080;DHT22;8655;57.106;-2.088;2023-03-01T01:46:55;17.60;42.20
17080;DHT22;8655;57.106;-2.088;2023-03-01T01:57:37;17.60;42.30
17080;DHT22;8655;57.106;-2.088;2023-03-01T02:00:11;17.50;42.10
17080;DHT22;8655;57.106;-2.088;2023-03-01T02:02:37;17.60;42.20
17080;DHT22;8655;57.106;-2.088;2023-03-01T02:07:56;17.50;42.20
17080;DHT22;8655;57.106;-2.088;2023-03-01T02:10:23;17.50;42.20
17080;DHT22;8655;57.106;-2.088;2023-03-01T02:12:49;17.50;42.20
17080;DHT22;8655;57.106;-2.088;2023-03-01T02:15:15;17.50;42.20
17080;DHT22;8655;57.106;-2.088;2023-03-01T02:17:41;17.50;42.20
17080;DHT22;8655;57.106;-2.088;2023-03-01T02:20:23;17.50;42.20
17080;DHT22;8655;57.106;-2.088;2023-03-01T02:22:52;17.50;42.20
17080;DHT22;8655;57.106;-2.088;2023-03-01T02:25:58;17.40;42.10
17080;DHT22;8655;57.106;-2.088;2023-03-01T02:28:34;17.50;42.20
17080;DHT22;8655;57.106;-2.088;2023-03-01T02:31:01;17.50;42.20
17080;DHT22;8655;57.106;-2.088;2023-03-01T02:33:46;17.40;42.70
17080;DHT22;8655;57.106;-2.088;2023-03-01T02:36:23;17.40;42.10
17080;DHT22;8655;57.106;-2.088;2023-03-01T02:38:52;17.40;42.10
17080;DHT22;8655;57.106;-2.088;2023-03-01T02:41:20;17.40;42.10
17080;DHT22;8655;57.106;-2.088;2023-03-01T02:43:46;17.40;42.10
17080;DHT22;8655;57.106;-2.088;2023-03-01T02:46:21;17.40;42.10
17080;DHT22;8655;57.106;-2.088;2023-03-01T02:48:50;17.40;42.10
17080;DHT22;8655;57.106;-2.088;2023-03-01T02:51:47;17.40;42.10
17080;DHT22;8655;57.106;-2.088;2023-03-01T02:54:30;17.40;42.10
17080;DHT22;8655;57.106;-2.088;2023-03-01T02:56:58;17.40;42.10
17080;DHT22;8655;57.106;-2.088;2023-03-01T02:59:27;17.30;42.00
17080;DHT22;8655;57.106;-2.088;2023-03-01T03:01:54;17.30;42.00
17080;DHT22;8655;57.106;-2.088;2023-03-01T03:04:20;17.30;42.00
17080;DHT22;8655;57.106;-2.088;2023-03-01T03:06:48;17.30;42.00
17080;DHT22;8655;57.106;-2.088;2023-03-01T03:09:14;17.30;42.00
17080;DHT22;8655;57.106;-2.088;2023-03-01T03:11:40;17.30;42.00
17080;DHT22;8655;57.106;-2.088;2023-03-01T03:14:09;17.30;42.00
17080;DHT22;8655;57.106;-2.088;2023-03-01T03:17:04;17.30;42.00
17080;DHT22;8655;57.106;-2.088;2023-03-01T03:19:31;17.30;42.00
17080;DHT22;8655;57.106;-2.088;2023-03-01T03:21:57;17.30;42.00
17080;DHT22;8655;57.106;-2.088;2023-03-01T03:24:24;17.30;42.00
17080;DHT22;8655;57.106;-2.088;2023-03-01T03:26:50;17.20;41.90
17080;DHT22;8655;57.106;-2.088;2023-03-01T03:29:15;17.20;42.00
17080;DHT22;8655;57.106;-2.088;2023-03-01T03:31:41;17.20;42.00
17080;DHT22;8655;57.106;-2.088;2023-03-01T03:34:07;17.20;42.00
17080;DHT22;8655;57.106;-2.088;2023-03-01T03:36:32;17.20;42.00
17080;DHT22;8655;57.106;-2.088;2023-03-01T03:38:58;17.20;42.00
17080;DHT22;8655;57.106;-2.088;2023-03-01T03:41:24;17.20;41.90
17080;DHT22;8655;57.106;-2.088;2023-03-01T03:43:50;17.20;41.90
17080;DHT22;8655;57.106;-2.088;2023-03-01T03:46:15;17.20;42.00
17080;DHT22;8655;57.106;-2.088;2023-03-01T03:48:43;17.20;41.90
17080;DHT22;8655;57.106;-2.088;2023-03-01T03:51:16;17.10;41.90
17080;DHT22;8655;57.106;-2.088;2023-03-01T03:53:43;17.10;41.90
17080;DHT22;8655;57.106;-2.088;2023-03-01T03:56:09;17.10;41.90
17080;DHT22;8655;57.106;-2.088;2023-03-01T03:58:35;17.10;41.80
17080;DHT22;8655;57.106;-2.088;2023-03-01T04:01:01;17.10;41.80
17080;DHT22;8655;57.106;-2.088;2023-03-01T04:03:28;17.10;41.80
17080;DHT22;8655;57.106;-2.088;2023-03-01T04:05:56;17.10;41.90
17080;DHT22;8655;57.106;-2.088;2023-03-01T04:08:23;17.10;41.90
17080;DHT22;8655;57.106;-2.088;2023-03-01T04:10:51;17.10;41.90
17080;DHT22;8655;57.106;-2.088;2023-03-01T04:13:20;17.10;41.90
17080;DHT22;8655;57.106;-2.088;2023-03-01T04:15:51;17.10;41.90
17080;DHT22;8655;57.106;-2.088;2023-03-01T04:18:18;17.00;41.80
17080;DHT22;8655;57.106;-2.088;2023-03-01T04:20:45;17.00;41.80
17080;DHT22;8655;57.106;-2.088;2023-03-01T04:23:17;17.00;41.80
17080;DHT22;8655;57.106;-2.088;2023-03-01T04:25:56;17.00;41.80
17080;DHT22;8655;57.106;-2.088;2023-03-01T04:28:28;17.00;41.80
17080;DHT22;8655;57.106;-2.088;2023-03-01T04:30:55;17.00;41.80
17080;DHT22;8655;57.106;-2.088;2023-03-01T04:33:22;17.00;41.80
17080;DHT22;8655;57.106;-2.088;2023-03-01T04:35:47;17.00;41.80
17080;DHT22;8655;57.106;-2.088;2023-03-01T04:38:15;17.00;41.80
17080;DHT22;8655;57.106;-2.088;2023-03-01T04:40:41;16.90;41.70
17080;DHT22;8655;57.106;-2.088;2023-03-01T04:43:09;17.00;41.80
17080;DHT22;8655;57.106;-2.088;2023-03-01T04:45:34;16.90;41.70
17080;DHT22;8655;57.106;-2.088;2023-03-01T04:48:00;16.90;41.70
17080;DHT22;8655;57.106;-2.088;2023-03-01T04:50:26;16.90;41.70
17080;DHT22;8655;57.106;-2.088;2023-03-01T04:52:52;16.90;41.70
17080;DHT22;8655;57.106;-2.088;2023-03-01T04:55:18;16.90;41.70
17080;DHT22;8655;57.106;-2.088;2023-03-01T04:57:44;16.90;41.70
17080;DHT22;8655;57.106;-2.088;2023-03-01T05:00:12;16.90;41.70
17080;DHT22;8655;57.106;-2.088;2023-03-01T05:02:56;16.90;41.70
17080;DHT22;8655;57.106;-2.088;2023-03-01T05:05:34;16.90;41.70
17080;DHT22;8655;57.106;-2.088;2023-03-01T05:08:06;16.90;41.70
17080;DHT22;8655;57.106;-2.088;2023-03-01T05:10:34;16.80;41.60
17080;DHT22;8655;57.106;-2.088;2023-03-01T05:13:02;16.80;41.70
17080;DHT22;8655;57.106;-2.088;2023-03-01T05:15:29;16.80;41.60
17080;DHT22;8655;57.106;-2.088;2023-03-01T05:17:57;16.80;41.70
17080;DHT22;8655;57.106;-2.088;2023-03-01T05:20:28;16.80;41.70
17080;DHT22;8655;57.106;-2.088;2023-03-01T05:22:56;16.80;41.70
17080;DHT22;8655;57.106;-2.088;2023-03-01T05:25:24;16.80;41.70
17080;DHT22;8655;57.106;-2.088;2023-03-01T05:27:50;16.80;41.70
17080;DHT22;8655;57.106;-2.088;2023-03-01T05:30:16;16.70;41.60
17080;DHT22;8655;57.106;-2.088;2023-03-01T05:32:48;16.70;41.60
17080;DHT22;8655;57.106;-2.088;2023-03-01T05:35:15;16.80;41.70
17080;DHT22;8655;57.106;-2.088;2023-03-01T05:37:46;16.80;41.70
17080;DHT22;8655;57.106;-2.088;2023-03-01T05:40:15;16.70;41.60
17080;DHT22;8655;57.106;-2.088;2023-03-01T05:42:46;16.70;41.60
17080;DHT22;8655;57.106;-2.088;2023-03-01T05:45:13;16.70;41.60
17080;DHT22;8655;57.106;-2.088;2023-03-01T05:47:40;16.70;41.60
17080;DHT22;8655;57.106;-2.088;2023-03-01T05:52:36;16.70;41.60
17080;DHT22;8655;57.106;-2.088;2023-03-01T05:55:01;16.70;41.60
17080;DHT22;8655;57.106;-2.088;2023-03-01T05:57:28;16.70;41.60
17080;DHT22;8655;57.106;-2.088;2023-03-01T05:59:54;16.70;41.60
17080;DHT22;8655;57.106;-2.088;2023-03-01T06:02:20;16.70;41.60
17080;DHT22;8655;57.106;-2.088;2023-03-01T06:04:45;16.60;41.60
17080;DHT22;8655;57.106;-2.088;2023-03-01T06:07:11;16.60;41.60
17080;DHT22;8655;57.106;-2.088;2023-03-01T06:09:37;16.60;41.60
17080;DHT22;8655;57.106;-2.088;2023-03-01T06:12:02;16.60;41.60
17080;DHT22;8655;57.106;-2.088;2023-03-01T06:14:28;16.60;41.60
17080;DHT22;8655;57.106;-2.088;2023-03-01T06:16:54;16.60;41.70
17080;DHT22;8655;57.106;-2.088;2023-03-01T06:19:19;16.70;41.80
17080;DHT22;8655;57.106;-2.088;2023-03-01T06:21:45;16.70;41.80
17080;DHT22;8655;57.106;-2.088;2023-03-01T06:24:11;16.70;41.80
17080;DHT22;8655;57.106;-2.088;2023-03-01T06:26:36;16.80;41.80
17080;DHT22;8655;57.106;-2.088;2023-03-01T06:29:02;16.80;41.80
17080;DHT22;8655;57.106;-2.088;2023-03-01T06:31:27;16.80;41.80
17080;DHT22;8655;57.106;-2.088;2023-03-01T06:33:54;16.80;41.80
17080;DHT22;8655;57.106;-2.088;2023-03-01T06:36:20;16.90;41.90
17080;DHT22;8655;57.106;-2.088;2023-03-01T06:38:47;17.00;41.90
17080;DHT22;8655;57.106;-2.088;2023-03-01T06:41:12;17.00;41.90
17080;DHT22;8655;57.106;-2.088;2023-03-01T06:43:38;17.00;41.90
17080;DHT22;8655;57.106;-2.088;2023-03-01T06:46:05;17.10;42.00
17080;DHT22;8655;57.106;-2.088;2023-03-01T06:48:32;17.10;42.00
17080;DHT22;8655;57.106;-2.088;2023-03-01T06:50:59;17.20;42.10
17080;DHT22;8655;57.106;-2.088;2023-03-01T06:53:27;17.20;42.00
17080;DHT22;8655;57.106;-2.088;2023-03-01T06:55:57;17.30;42.10
17080;DHT22;8655;57.106;-2.088;2023-03-01T06:58:23;17.30;42.10
17080;DHT22;8655;57.106;-2.088;2023-03-01T07:00:48;17.40;42.20
17080;DHT22;8655;57.106;-2.088;2023-03-01T07:03:14;17.40;42.20
17080;DHT22;8655;57.106;-2.088;2023-03-01T07:05:40;17.40;42.20
17080;DHT22;8655;57.106;-2.088;2023-03-01T07:08:06;17.50;42.20
17080;DHT22;8655;57.106;-2.088;2023-03-01T07:10:31;17.50;42.20
17080;DHT22;8655;57.106;-2.088;2023-03-01T07:12:58;17.60;42.30
17080;DHT22;8655;57.106;-2.088;2023-03-01T07:15:25;17.60;42.30
17080;DHT22;8655;57.106;-2.088;2023-03-01T07:17:51;17.70;42.30
17080;DHT22;8655;57.106;-2.088;2023-03-01T07:20:18;17.70;42.30
17080;DHT22;8655;57.106;-2.088;2023-03-01T07:22:43;17.80;42.40
17080;DHT22;8655;57.106;-2.088;2023-03-01T07:25:10;17.80;42.40
17080;DHT22;8655;57.106;-2.088;2023-03-01T07:27:36;17.90;42.50
17080;DHT22;8655;57.106;-2.088;2023-03-01T07:30:02;17.90;42.40
17080;DHT22;8655;57.106;-2.088;2023-03-01T07:32:27;17.90;42.40
17080;DHT22;8655;57.106;-2.088;2023-03-01T07:34:53;18.00;42.50
17080;DHT22;8655;57.106;-2.088;2023-03-01T07:37:19;18.00;42.50
17080;DHT22;8655;57.106;-2.088;2023-03-01T07:39:45;18.10;42.60
17080;DHT22;8655;57.106;-2.088;2023-03-01T07:42:10;18.10;42.60
17080;DHT22;8655;57.106;-2.088;2023-03-01T07:44:36;18.10;42.50
17080;DHT22;8655;57.106;-2.088;2023-03-01T07:47:03;18.20;42.60
17080;DHT22;8655;57.106;-2.088;2023-03-01T07:49:29;18.20;42.70
17080;DHT22;8655;57.106;-2.088;2023-03-01T07:51:54;18.20;42.60
17080;DHT22;8655;57.106;-2.088;2023-03-01T07:54:20;18.30;42.70
17080;DHT22;8655;57.106;-2.088;2023-03-01T07:56:46;18.30;42.70
17080;DHT22;8655;57.106;-2.088;2023-03-01T07:59:12;18.40;42.80
17080;DHT22;8655;57.106;-2.088;2023-03-01T08:01:37;18.40;42.80
17080;DHT22;8655;57.106;-2.088;2023-03-01T08:04:03;18.50;42.80
17080;DHT22;8655;57.106;-2.088;2023-03-01T08:06:34;18.50;42.80
17080;DHT22;8655;57.106;-2.088;2023-03-01T08:09:00;18.50;42.80
17080;DHT22;8655;57.106;-2.088;2023-03-01T08:11:25;18.60;42.90
17080;DHT22;8655;57.106;-2.088;2023-03-01T08:13:53;18.60;42.90
17080;DHT22;8655;57.106;-2.088;2023-03-01T08:16:19;18.60;42.80
17080;DHT22;8655;57.106;-2.088;2023-03-01T08:18:45;18.60;42.80
17080;DHT22;8655;57.106;-2.088;2023-03-01T08:21:14;18.60;42.80
17080;DHT22;8655;57.106;-2.088;2023-03-01T08:23:40;18.70;42.90
17080;DHT22;8655;57.106;-2.088;2023-03-01T08:26:09;18.70;42.90
17080;DHT22;8655;57.106;-2.088;2023-03-01T08:28:35;18.70;42.90
17080;DHT22;8655;57.106;-2.088;2023-03-01T08:31:01;18.70;42.90
17080;DHT22;8655;57.106;-2.088;2023-03-01T08:33:27;18.70;42.90
17080;DHT22;8655;57.106;-2.088;2023-03-01T08:35:52;18.70;42.90
17080;DHT22;8655;57.106;-2.088;2023-03-01T08:38:18;18.70;42.90
17080;DHT22;8655;57.106;-2.088;2023-03-01T08:40:43;18.70;42.90
17080;DHT22;8655;57.106;-2.088;2023-03-01T08:43:09;18.70;42.90
17080;DHT22;8655;57.106;-2.088;2023-03-01T08:45:35;18.70;42.90
17080;DHT22;8655;57.106;-2.088;2023-03-01T08:48:00;18.70;42.90
17080;DHT22;8655;57.106;-2.088;2023-03-01T08:50:26;18.70;42.90
17080;DHT22;8655;57.106;-2.088;2023-03-01T08:52:52;18.70;42.90
17080;DHT22;8655;57.106;-2.088;2023-03-01T08:55:17;18.60;42.90
17080;DHT22;8655;57.106;-2.088;2023-03-01T08:57:43;18.60;42.90
17080;DHT22;8655;57.106;-2.088;2023-03-01T09:00:10;18.60;42.90
17080;DHT22;8655;57.106;-2.088;2023-03-01T09:02:40;18.60;42.90
17080;DHT22;8655;57.106;-2.088;2023-03-01T09:05:06;18.60;42.90
17080;DHT22;8655;57.106;-2.088;2023-03-01T09:07:31;18.60;43.00
17080;DHT22;8655;57.106;-2.088;2023-03-01T09:09:57;18.50;42.90
17080;DHT22;8655;57.106;-2.088;2023-03-01T09:12:23;18.50;42.90
17080;DHT22;8655;57.106;-2.088;2023-03-01T09:14:50;18.50;42.90
17080;DHT22;8655;57.106;-2.088;2023-03-01T09:17:16;18.50;42.90
17080;DHT22;8655;57.106;-2.088;2023-03-01T09:19:41;18.50;42.90
17080;DHT22;8655;57.106;-2.088;2023-03-01T09:22:07;18.50;42.90
17080;DHT22;8655;57.106;-2.088;2023-03-01T09:24:33;18.50;43.00
17080;DHT22;8655;57.106;-2.088;2023-03-01T09:26:58;18.40;42.90
17080;DHT22;8655;57.106;-2.088;2023-03-01T09:29:24;18.40;42.90
17080;DHT22;8655;57.106;-2.088;2023-03-01T09:31:51;18.40;42.90
17080;DHT22;8655;57.106;-2.088;2023-03-01T09:34:16;18.40;42.90
17080;DHT22;8655;57.106;-2.088;2023-03-01T09:36:48;18.40;42.90
17080;DHT22;8655;57.106;-2.088;2023-03-01T09:39:14;18.40;42.90
17080;DHT22;8655;57.106;-2.088;2023-03-01T09:41:59;18.30;42.90
17080;DHT22;8655;57.106;-2.088;2023-03-01T09:46:59;18.30;42.90
17080;DHT22;8655;57.106;-2.088;2023-03-01T09:49:28;18.30;42.90
17080;DHT22;8655;57.106;-2.088;2023-03-01T09:54:56;18.20;42.80
17080;DHT22;8655;57.106;-2.088;2023-03-01T09:57:45;18.30;42.90
17080;DHT22;8655;57.106;-2.088;2023-03-01T10:02:56;18.20;42.80
17080;DHT22;8655;57.106;-2.088;2023-03-01T10:05:36;18.20;42.80
17080;DHT22;8655;57.106;-2.088;2023-03-01T10:08:14;18.10;42.80
17080;DHT22;8655;57.106;-2.088;2023-03-01T10:10:45;18.10;42.80
17080;DHT22;8655;57.106;-2.088;2023-03-01T10:14:05;18.10;42.80
17080;DHT22;8655;57.106;-2.088;2023-03-01T10:16:23;18.10;42.80
17080;DHT22;8655;57.106;-2.088;2023-03-01T10:18:56;18.10;42.80
17080;DHT22;8655;57.106;-2.088;2023-03-01T10:21:23;18.10;42.80
17080;DHT22;8655;57.106;-2.088;2023-03-01T10:23:52;18.10;42.80
17080;DHT22;8655;57.106;-2.088;2023-03-01T10:26:56;18.10;42.80
17080;DHT22;8655;57.106;-2.088;2023-03-01T10:29:34;18.00;42.70
17080;DHT22;8655;57.106;-2.088;2023-03-01T10:32:03;18.00;42.70
17080;DHT22;8655;57.106;-2.088;2023-03-01T10:34:35;18.00;42.80
17080;DHT22;8655;57.106;-2.088;2023-03-01T10:39:37;18.00;42.80
17080;DHT22;8655;57.106;-2.088;2023-03-01T10:42:32;18.00;42.80
17080;DHT22;8655;57.106;-2.088;2023-03-01T10:48:24;17.90;42.70
17080;DHT22;8655;57.106;-2.088;2023-03-01T10:51:15;17.90;43.30
17080;DHT22;8655;57.106;-2.088;2023-03-01T10:53:48;17.90;42.70
17080;DHT22;8655;57.106;-2.088;2023-03-01T10:56:15;17.90;42.70
17080;DHT22;8655;57.106;-2.088;2023-03-01T10:59:04;17.90;42.70
17080;DHT22;8655;57.106;-2.088;2023-03-01T11:01:35;17.90;42.70
17080;DHT22;8655;57.106;-2.088;2023-03-01T11:06:37;17.90;42.70
17080;DHT22;8655;57.106;-2.088;2023-03-01T11:11:44;17.80;42.60
17080;DHT22;8655;57.106;-2.088;2023-03-01T11:14:17;17.80;42.60
17080;DHT22;8655;57.106;-2.088;2023-03-01T11:16:45;17.80;42.60
17080;DHT22;8655;57.106;-2.088;2023-03-01T11:22:07;17.80;42.70
17080;DHT22;8655;57.106;-2.088;2023-03-01T11:24:46;17.80;42.70
17080;DHT22;8655;57.106;-2.088;2023-03-01T11:27:28;17.80;42.70
17080;DHT22;8655;57.106;-2.088;2023-03-01T11:30:20;17.80;42.60
17080;DHT22;8655;57.106;-2.088;2023-03-01T11:35:22;17.80;42.70
17080;DHT22;8655;57.106;-2.088;2023-03-01T11:38:25;17.70;43.20
17080;DHT22;8655;57.106;-2.088;2023-03-01T11:40:52;17.70;42.60
17080;DHT22;8655;57.106;-2.088;2023-03-01T11:46:43;17.70;42.60
17080;DHT22;8655;57.106;-2.088;2023-03-01T11:52:27;17.70;42.60
17080;DHT22;8655;57.106;-2.088;2023-03-01T12:03:32;17.60;42.60
17080;DHT22;8655;57.106;-2.088;2023-03-01T12:12:16;17.60;42.70
17080;DHT22;8655;57.106;-2.088;2023-03-01T12:14:52;17.60;42.60
17080;DHT22;8655;57.106;-2.088;2023-03-01T12:17:39;17.60;42.60
17080;DHT22;8655;57.106;-2.088;2023-03-01T12:20:31;17.60;42.70
17080;DHT22;8655;57.106;-2.088;2023-03-01T12:25:43;17.60;42.70
17080;DHT22;8655;57.106;-2.088;2023-03-01T12:33:41;17.50;42.60
17080;DHT22;8655;57.106;-2.088;2023-03-01T12:42:16;17.50;42.60
17080;DHT22;8655;57.106;-2.088;2023-03-01T12:50:28;17.50;42.60
17080;DHT22;8655;57.106;-2.088;2023-03-01T12:52:57;17.50;42.60
17080;DHT22;8655;57.106;-2.088;2023-03-01T12:55:31;17.50;42.60
17080;DHT22;8655;57.106;-2.088;2023-03-01T13:12:45;17.40;42.50
17080;DHT22;8655;57.106;-2.088;2023-03-01T13:18:00;17.40;42.60
17080;DHT22;8655;57.106;-2.088;2023-03-01T13:20:34;17.40;42.60
17080;DHT22;8655;57.106;-2.088;2023-03-01T13:23:13;17.40;42.60
17080;DHT22;8655;57.106;-2.088;2023-03-01T13:26:16;17.40;42.60
17080;DHT22;8655;57.106;-2.088;2023-03-01T13:33:55;17.40;42.60
17080;DHT22;8655;57.106;-2.088;2023-03-01T13:38:59;17.40;42.60
17080;DHT22;8655;57.106;-2.088;2023-03-01T13:44:25;17.30;42.50
17080;DHT22;8655;57.106;-2.088;2023-03-01T13:47:08;17.30;42.50
17080;DHT22;8655;57.106;-2.088;2023-03-01T13:54:55;17.30;42.60
17080;DHT22;8655;57.106;-2.088;2023-03-01T13:57:32;17.30;42.60
17080;DHT22;8655;57.106;-2.088;2023-03-01T13:59:59;17.30;42.60
17080;DHT22;8655;57.106;-2.088;2023-03-01T14:02:25;17.30;42.60
17080;DHT22;8655;57.106;-2.088;2023-03-01T14:04:58;17.30;42.60
17080;DHT22;8655;57.106;-2.088;2023-03-01T14:07:26;17.30;42.60
17080;DHT22;8655;57.106;-2.088;2023-03-01T14:10:02;17.30;42.60
17080;DHT22;8655;57.106;-2.088;2023-03-01T14:17:40;17.30;42.50
17080;DHT22;8655;57.106;-2.088;2023-03-01T14:20:16;17.30;42.60
17080;DHT22;8655;57.106;-2.088;2023-03-01T14:22:43;17.30;42.60
17080;DHT22;8655;57.106;-2.088;2023-03-01T14:25:20;17.30;42.60
17080;DHT22;8655;57.106;-2.088;2023-03-01T14:27:55;17.30;42.60
17080;DHT22;8655;57.106;-2.088;2023-03-01T14:30:27;17.20;42.50
17080;DHT22;8655;57.106;-2.088;2023-03-01T14:33:01;17.20;42.50
17080;DHT22;8655;57.106;-2.088;2023-03-01T14:35:33;17.20;42.50
17080;DHT22;8655;57.106;-2.088;2023-03-01T14:37:59;17.20;42.50
17080;DHT22;8655;57.106;-2.088;2023-03-01T14:40:34;17.20;42.50
17080;DHT22;8655;57.106;-2.088;2023-03-01T14:43:03;17.20;42.60
17080;DHT22;8655;57.106;-2.088;2023-03-01T14:45:33;17.20;42.50
17080;DHT22;8655;57.106;-2.088;2023-03-01T14:48:02;17.20;42.50
17080;DHT22;8655;57.106;-2.088;2023-03-01T14:50:31;17.20;42.50
17080;DHT22;8655;57.106;-2.088;2023-03-01T14:53:01;17.20;42.60
17080;DHT22;8655;57.106;-2.088;2023-03-01T14:55:34;17.20;42.60
17080;DHT22;8655;57.106;-2.088;2023-03-01T14:58:09;17.20;42.60
17080;DHT22;8655;57.106;-2.088;2023-03-01T15:00:37;17.20;42.60
17080;DHT22;8655;57.106;-2.088;2023-03-01T15:03:14;17.20;42.60
17080;DHT22;8655;57.106;-2.088;2023-03-01T15:05:43;17.10;42.50
17080;DHT22;8655;57.106;-2.088;2023-03-01T15:08:18;17.20;42.60
17080;DHT22;8655;57.106;-2.088;2023-03-01T15:11:03;17.10;42.50
17080;DHT22;8655;57.106;-2.088;2023-03-01T15:13:32;17.10;42.50
17080;DHT22;8655;57.106;-2.088;2023-03-01T15:16:27;17.20;42.60
17080;DHT22;8655;57.106;-2.088;2023-03-01T15:19:03;17.10;42.60
17080;DHT22;8655;57.106;-2.088;2023-03-01T15:21:36;17.10;42.50
17080;DHT22;8655;57.106;-2.088;2023-03-01T15:26:58;17.10;42.50
17080;DHT22;8655;57.106;-2.088;2023-03-01T15:29:32;17.10;42.50
17080;DHT22;8655;57.106;-2.088;2023-03-01T15:32:03;17.10;42.50
17080;DHT22;8655;57.106;-2.088;2023-03-01T15:34:36;17.10;42.50
17080;DHT22;8655;57.106;-2.088;2023-03-01T15:37:32;17.10;42.60
17080;DHT22;8655;57.106;-2.088;2023-03-01T15:39:54;17.10;42.50
17080;DHT22;8655;57.106;-2.088;2023-03-01T15:47:41;17.10;42.50
17080;DHT22;8655;57.106;-2.088;2023-03-01T15:50:36;17.10;42.50
17080;DHT22;8655;57.106;-2.088;2023-03-01T15:53:10;17.00;42.50
17080;DHT22;8655;57.106;-2.088;2023-03-01T15:55:37;17.00;42.40
17080;DHT22;8655;57.106;-2.088;2023-03-01T15:58:05;17.00;42.50
17080;DHT22;8655;57.106;-2.088;2023-03-01T16:00:32;17.00;42.50
17080;DHT22;8655;57.106;-2.088;2023-03-01T16:02:58;17.00;42.50
17080;DHT22;8655;57.106;-2.088;2023-03-01T16:05:29;17.00;42.50
17080;DHT22;8655;57.106;-2.088;2023-03-01T16:07:56;17.00;42.50
17080;DHT22;8655;57.106;-2.088;2023-03-01T16:10:22;17.00;42.50
17080;DHT22;8655;57.106;-2.088;2023-03-01T16:12:49;17.00;42.50
17080;DHT22;8655;57.106;-2.088;2023-03-01T16:15:20;17.00;42.50
17080;DHT22;8655;57.106;-2.088;2023-03-01T16:17:46;17.00;42.50
17080;DHT22;8655;57.106;-2.088;2023-03-01T16:20:12;17.00;42.50
17080;DHT22;8655;57.106;-2.088;2023-03-01T16:22:44;17.00;42.50
17080;DHT22;8655;57.106;-2.088;2023-03-01T16:25:11;17.00;42.50
17080;DHT22;8655;57.106;-2.088;2023-03-01T16:27:38;17.00;42.50
17080;DHT22;8655;57.106;-2.088;2023-03-01T16:30:05;17.00;42.50
17080;DHT22;8655;57.106;-2.088;2023-03-01T16:32:31;17.00;42.50
17080;DHT22;8655;57.106;-2.088;2023-03-01T16:34:57;17.00;42.50
17080;DHT22;8655;57.106;-2.088;2023-03-01T16:37:22;17.00;42.50
17080;DHT22;8655;57.106;-2.088;2023-03-01T16:39:48;16.90;42.50
17080;DHT22;8655;57.106;-2.088;2023-03-01T16:42:17;16.90;42.50
17080;DHT22;8655;57.106;-2.088;2023-03-01T16:44:43;16.90;42.50
17080;DHT22;8655;57.106;-2.088;2023-03-01T16:47:09;16.90;42.50
17080;DHT22;8655;57.106;-2.088;2023-03-01T16:49:34;16.90;42.50
17080;DHT22;8655;57.106;-2.088;2023-03-01T16:52:00;16.90;42.50
17080;DHT22;8655;57.106;-2.088;2023-03-01T16:54:26;16.90;42.50
17080;DHT22;8655;57.106;-2.088;2023-03-01T16:56:51;16.90;42.50
17080;DHT22;8655;57.106;-2.088;2023-03-01T16:59:17;16.90;42.50
17080;DHT22;8655;57.106;-2.088;2023-03-01T17:01:44;16.90;42.50
17080;DHT22;8655;57.106;-2.088;2023-03-01T17:04:11;16.90;42.50
17080;DHT22;8655;57.106;-2.088;2023-03-01T17:06:37;16.90;42.50
17080;DHT22;8655;57.106;-2.088;2023-03-01T17:09:03;16.90;42.50
17080;DHT22;8655;57.106;-2.088;2023-03-01T17:11:29;16.90;42.50
17080;DHT22;8655;57.106;-2.088;2023-03-01T17:13:54;16.90;42.50
17080;DHT22;8655;57.106;-2.088;2023-03-01T17:16:20;16.90;42.50
17080;DHT22;8655;57.106;-2.088;2023-03-01T17:18:46;16.90;42.50
17080;DHT22;8655;57.106;-2.088;2023-03-01T17:21:13;16.80;42.40
17080;DHT22;8655;57.106;-2.088;2023-03-01T17:23:41;16.80;42.40
17080;DHT22;8655;57.106;-2.088;2023-03-01T17:26:07;16.90;42.50
17080;DHT22;8655;57.106;-2.088;2023-03-01T17:28:34;16.80;42.50
17080;DHT22;8655;57.106;-2.088;2023-03-01T17:31:03;16.80;42.50
17080;DHT22;8655;57.106;-2.088;2023-03-01T17:33:29;16.80;42.40
17080;DHT22;8655;57.106;-2.088;2023-03-01T17:35:55;16.80;42.40
17080;DHT22;8655;57.106;-2.088;2023-03-01T17:38:21;16.80;42.40
17080;DHT22;8655;57.106;-2.088;2023-03-01T17:40:47;16.80;42.50
17080;DHT22;8655;57.106;-2.088;2023-03-01T17:43:14;16.80;42.50
17080;DHT22;8655;57.106;-2.088;2023-03-01T17:45:41;16.80;42.50
17080;DHT22;8655;57.106;-2.088;2023-03-01T17:48:09;16.80;42.50
17080;DHT22;8655;57.106;-2.088;2023-03-01T17:50:36;16.80;42.50